Time;durP1;ratioP1;P1;durP2;ratioP2;P2;SDS_P1;SDS_P2;PMS_P1;PMS_P2;Temp;Humidity;BMP_temperature;BMP_pressure;BME280_temperature;BME280_humidity;BME280_pressure;Samples;Min_cycle;Max_cycle;Signal;HPM_P1;HPM_P2
2023/08/09 06:34:05;;;;;;;13.75;8.38;;;12.70;99.90;;;;;;6303484;22;20019;-84
2023/08/09 06:36:53;;;;;;;14.05;8.00;;;12.30;99.90;;;;;;6305963;22;20019;-85
2023/08/09 06:55:41;;;;;;;13.93;7.50;;;13.40;99.90;;;;;;6292862;22;20102;-84
2023/08/09 06:58:07;;;;;;;14.55;7.43;;;13.20;99.90;;;;;;6305321;22;20103;-85
2023/08/09 07:00:33;;;;;;;11.75;6.53;;;13.60;99.90;;;;;;6278317;22;20439;-84
2023/08/09 07:03:16;;;;;;;13.40;6.25;;;13.70;99.90;;;;;;6278130;22;20439;-85
2023/08/09 07:05:48;;;;;;;13.60;7.55;;;14.40;99.90;;;;;;6306500;22;20011;-84
2023/08/09 07:08:14;;;;;;;12.18;6.47;;;15.10;99.90;;;;;;6278478;22;20019;-85
2023/08/09 07:10:40;;;;;;;11.15;5.95;;;14.10;99.90;;;;;;6278733;22;20011;-84
2023/08/09 07:13:27;;;;;;;11.35;6.10;;;14.20;99.90;;;;;;6308138;22;20019;-85
2023/08/09 07:16:23;;;;;;;11.52;6.38;;;14.30;99.90;;;;;;6303528;22;20011;-86
2023/08/09 07:18:54;;;;;;;10.73;5.35;;;14.40;99.90;;;;;;6306301;22;20016;-86
2023/08/09 07:28:15;;;;;;;10.32;5.38;;;14.70;99.90;;;;;;6235097;22;20018;-85
2023/08/09 07:33:32;;;;;;;10.38;4.82;;;14.40;99.90;;;;;;6293067;22;20439;-85
2023/08/09 07:36:09;;;;;;;;;;;;;;;;;;;;;
2023/08/09 07:38:50;;;;;;;11.80;4.78;;;15.50;99.90;;;;;;6307909;22;20019;-87
2023/08/09 07:41:38;;;;;;;11.32;5.20;;;15.20;99.90;;;;;;6295370;22;20377;-87
2023/08/09 07:48:05;;;;;;;11.85;4.63;;;15.40;99.90;;;;;;6186644;23;20103;-86
2023/08/09 07:50:57;;;;;;;10.60;4.55;;;15.50;99.90;;;;;;6190741;22;20111;-86
2023/08/09 07:54:38;;;;;;;10.15;4.80;;;15.60;99.90;;;;;;6307915;22;20072;-87
2023/08/09 07:57:07;;;;;;;10.68;4.50;;;15.70;99.90;;;;;;6307829;22;20043;-88
2023/08/09 08:00:20;;;;;;;10.32;4.15;;;15.80;99.90;;;;;;6308529;22;20015;-90
2023/08/09 08:02:46;;;;;;;10.85;4.20;;;15.90;99.90;;;;;;6226407;22;20019;-90
2023/08/09 08:05:34;;;;;;;10.15;4.40;;;16.00;99.90;;;;;;6307178;22;20076;-90
2023/08/09 08:08:03;;;;;;;8.18;3.42;;;15.80;99.90;;;;;;6307980;22;20455;-89
2023/08/09 08:10:41;;;;;;;8.65;3.97;;;16.20;99.90;;;;;;6306672;22;20428;-88
2023/08/09 08:17:08;;;;;;;10.10;4.22;;;16.30;99.90;;;;;;6218488;23;20020;-89
2023/08/09 08:19:45;;;;;;;7.90;3.47;;;16.20;99.90;;;;;;6257181;22;20435;-89
2023/08/09 08:22:43;;;;;;;9.48;3.80;;;16.70;99.90;;;;;;6308453;22;20023;-90
2023/08/09 08:25:13;;;;;;;8.85;4.10;;;16.70;99.90;;;;;;6307022;22;20011;-89
2023/08/09 08:28:30;;;;;;;8.80;3.80;;;16.80;99.90;;;;;;6280812;22;20392;-92
2023/08/09 08:31:04;;;;;;;8.38;3.70;;;16.80;99.90;;;;;;6219737;23;20027;-90
2023/08/09 10:40:40;;;;;;;6.03;2.00;;;18.60;99.90;;;;;;6156833;23;20044;-88
2023/08/09 11:07:45;;;;;;;7.57;1.90;;;19.10;99.90;;;;;;6306516;22;20083;-84
2023/08/09 11:14:02;;;;;;;8.60;1.85;;;20.10;99.90;;;;;;6303583;22;20019;-87
2023/08/09 11:17:18;;;;;;;5.57;1.88;;;20.10;99.90;;;;;;6273881;22;20035;-82
2023/08/09 11:19:44;;;;;;;7.00;1.90;;;20.20;99.90;;;;;;6275318;22;20109;-83
2023/08/09 11:22:25;;;;;;;12.57;2.05;;;20.30;99.90;;;;;;6275041;22;20073;-84
2023/08/09 11:24:51;;;;;;;5.30;1.73;;;20.10;99.90;;;;;;6249495;22;20073;-79
2023/08/09 11:27:19;;;;;;;5.22;1.50;;;20.10;99.90;;;;;;6248819;22;20020;-84
2023/08/09 11:29:47;;;;;;;6.93;1.90;;;20.30;99.90;;;;;;6277410;22;20043;-85
2023/08/09 11:32:13;;;;;;;3.80;1.50;;;20.70;99.90;;;;;;6249890;22;20020;-84
2023/08/09 11:34:56;;;;;;;5.50;1.70;;;21.10;99.90;;;;;;6273935;22;20015;-83
2023/08/09 11:37:22;;;;;;;5.43;1.80;;;21.20;98.30;;;;;;6250199;22;20022;-83
2023/08/09 11:40:00;;;;;;;5.80;1.80;;;21.50;99.90;;;;;;6250221;22;20015;-84
2023/08/09 11:42:26;;;;;;;6.55;1.90;;;21.80;99.40;;;;;;6249276;22;20011;-84
2023/08/09 11:45:04;;;;;;;5.13;1.70;;;22.10;99.90;;;;;;6276688;22;20347;-84
2023/08/09 11:47:30;;;;;;;7.32;1.88;;;22.30;97.20;;;;;;6275898;22;20069;-83
2023/08/09 11:49:56;;;;;;;5.35;1.67;;;22.20;99.90;;;;;;6275433;22;20348;-83
2023/08/09 11:52:35;;;;;;;5.43;1.70;;;22.00;99.90;;;;;;6255528;22;20020;-83
2023/08/09 11:55:01;;;;;;;5.25;1.67;;;21.90;98.50;;;;;;6281134;22;20027;-83
2023/08/09 11:57:35;;;;;;;5.13;1.75;;;21.70;99.00;;;;;;6275415;22;20057;-83
2023/08/09 12:00:02;;;;;;;7.00;1.75;;;21.80;99.40;;;;;;6277218;22;20365;-84
2023/08/09 12:03:08;;;;;;;5.65;1.73;;;21.80;99.90;;;;;;6249178;22;20016;-83
2023/08/09 12:05:42;;;;;;;7.22;2.00;;;21.90;99.10;;;;;;6277021;22;20030;-84
2023/08/09 12:08:12;;;;;;;5.53;1.80;;;22.10;99.90;;;;;;6275109;22;20057;-83
2023/08/09 12:10:42;;;;;;;6.97;1.80;;;22.30;99.60;;;;;;6274161;22;20344;-84
2023/08/09 12:13:19;;;;;;;7.38;1.90;;;22.10;98.80;;;;;;6275527;22;20047;-84
2023/08/09 12:15:44;;;;;;;6.38;1.90;;;22.10;96.00;;;;;;6249173;22;20015;-83
2023/08/09 12:18:13;;;;;;;6.18;1.90;;;22.50;99.80;;;;;;6276483;22;20336;-84
2023/08/09 12:20:47;;;;;;;6.63;2.00;;;22.20;98.80;;;;;;6248970;22;20115;-85
2023/08/09 12:23:29;;;;;;;5.63;1.80;;;22.10;98.30;;;;;;6248622;22;20019;-84
2023/08/09 12:26:48;;;;;;;5.10;1.90;;;22.10;97.40;;;;;;6274847;22;20016;-86
2023/08/09 12:29:23;;;;;;;7.40;1.70;;;21.70;97.20;;;;;;6192668;22;20016;-85
2023/08/09 12:32:04;;;;;;;5.85;1.90;;;21.40;99.90;;;;;;6276071;22;20444;-86
2023/08/09 12:34:36;;;;;;;8.32;2.13;;;21.40;98.60;;;;;;6276366;22;20444;-85
2023/08/09 12:37:19;;;;;;;5.57;1.90;;;21.30;99.30;;;;;;6249418;22;20016;-85
2023/08/09 12:40:05;;;;;;;5.93;1.90;;;21.20;98.50;;;;;;6276673;22;20367;-85
2023/08/09 12:42:31;;;;;;;5.25;1.80;;;20.80;98.10;;;;;;6277714;22;20062;-85
2023/08/09 12:45:09;;;;;;;6.70;1.98;;;20.80;99.90;;;;;;6276481;22;20012;-85
2023/08/09 12:47:37;;;;;;;5.60;1.80;;;20.60;99.90;;;;;;6250021;22;20042;-84
2023/08/09 12:57:35;;;;;;;5.97;1.90;;;21.30;99.10;;;;;;6249676;22;20020;-86
2023/08/09 13:00:15;;;;;;;5.93;1.90;;;21.10;98.60;;;;;;6273829;22;20016;-85
2023/08/09 13:03:28;;;;;;;7.32;2.10;;;20.80;99.90;;;;;;6276481;22;20019;-85
2023/08/09 13:09:42;;;;;;;12.88;2.15;;;20.90;99.90;;;;;;6213086;23;20091;-85
2023/08/09 13:12:42;;;;;;;6.00;2.17;;;21.40;99.90;;;;;;6188180;23;20017;-85
2023/08/09 13:15:08;;;;;;;7.13;2.22;;;21.20;99.90;;;;;;6182145;23;20088;-86
2023/08/09 13:17:48;;;;;;;7.10;2.10;;;21.50;99.90;;;;;;6182289;23;20017;-86
2023/08/09 13:20:28;;;;;;;8.23;2.13;;;20.90;98.90;;;;;;6182000;23;20021;-84
2023/08/09 13:23:07;;;;;;;6.72;2.00;;;20.60;99.90;;;;;;6157260;23;20521;-85
2023/08/09 13:25:59;;;;;;;6.80;2.10;;;21.00;99.70;;;;;;6248924;22;20012;-85
2023/08/09 13:28:25;;;;;;;6.00;1.90;;;21.30;99.90;;;;;;6266413;22;20099;-85
2023/08/09 13:31:27;;;;;;;8.60;2.20;;;21.20;99.90;;;;;;6274092;22;20044;-85
2023/08/09 13:34:36;;;;;;;5.75;2.00;;;21.30;99.20;;;;;;6247886;22;20016;-85
2023/08/09 13:37:14;;;;;;;6.75;2.00;;;21.20;99.90;;;;;;6274321;22;20016;-85
2023/08/09 13:39:55;;;;;;;4.55;1.70;;;21.00;99.90;;;;;;6248660;22;20455;-85
2023/08/09 13:42:37;;;;;;;6.70;2.00;;;20.70;99.90;;;;;;6287383;22;20502;-85
2023/08/09 13:45:22;;;;;;;11.70;2.40;;;20.50;99.90;;;;;;6264909;22;20200;-83
2023/08/09 13:47:57;;;;;;;6.15;2.10;;;20.40;99.90;;;;;;6275120;22;20012;-85
2023/08/09 13:50:39;;;;;;;6.50;2.13;;;20.40;99.90;;;;;;6274940;22;20026;-83
2023/08/09 13:53:08;;;;;;;11.87;2.40;;;20.30;99.90;;;;;;6270332;22;20019;-84
2023/08/09 13:55:46;;;;;;;6.18;2.20;;;20.40;99.90;;;;;;6305699;22;20069;-84
2023/08/09 14:01:18;;;;;;;8.20;2.38;;;20.60;99.90;;;;;;6279353;22;20019;-84
2023/08/09 14:03:46;;;;;;;6.93;2.20;;;20.70;99.90;;;;;;6297019;22;20351;-82
2023/08/09 14:06:12;;;;;;;6.78;2.15;;;20.70;99.90;;;;;;6279668;22;20024;-81
2023/08/09 14:08:58;;;;;;;8.38;2.45;;;20.70;99.90;;;;;;6279575;22;20023;-81
2023/08/09 14:11:24;;;;;;;7.45;2.10;;;20.60;99.90;;;;;;6278236;22;20046;-82
2023/08/09 14:14:40;;;;;;;8.50;2.45;;;20.60;99.90;;;;;;6279220;22;20019;-81
2023/08/09 14:17:06;;;;;;;7.70;1.90;;;20.70;99.90;;;;;;6305810;22;20023;-81
2023/08/09 14:19:34;;;;;;;7.68;2.10;;;20.90;99.90;;;;;;6306731;22;20011;-83
2023/08/09 14:22:12;;;;;;;7.60;2.03;;;20.90;99.90;;;;;;6279539;22;20102;-82
2023/08/09 14:24:46;;;;;;;5.05;1.80;;;20.60;99.90;;;;;;6305985;22;20019;-81
2023/08/09 14:27:18;;;;;;;7.43;2.00;;;20.60;99.90;;;;;;6279538;22;20015;-81
2023/08/09 14:29:45;;;;;;;8.15;1.90;;;20.90;99.90;;;;;;6278763;22;20011;-83
2023/08/09 14:32:11;;;;;;;6.60;2.00;;;20.80;99.90;;;;;;6252868;22;20015;-81
2023/08/09 14:34:37;;;;;;;6.75;1.90;;;20.70;99.90;;;;;;6278739;22;20064;-81
2023/08/09 14:37:09;;;;;;;6.88;1.90;;;20.90;99.90;;;;;;6306154;22;20357;-81
2023/08/09 14:39:37;;;;;;;7.10;1.90;;;21.00;99.90;;;;;;6279007;22;20015;-81
2023/08/09 14:42:04;;;;;;;5.13;1.75;;;21.40;99.90;;;;;;6306095;22;20446;-82
2023/08/09 14:44:34;;;;;;;6.43;1.85;;;21.50;99.90;;;;;;6278318;22;20011;-82
2023/08/09 14:47:00;;;;;;;6.60;1.80;;;21.60;99.90;;;;;;6279632;22;20316;-82
2023/08/09 14:49:26;;;;;;;6.53;1.63;;;21.80;99.90;;;;;;6279218;22;20045;-82
2023/08/09 14:51:51;;;;;;;10.88;1.92;;;21.70;99.90;;;;;;6277290;22;20023;-82
2023/08/09 14:54:42;;;;;;;6.10;1.83;;;21.70;99.90;;;;;;6279148;22;20011;-81
2023/08/09 14:57:08;;;;;;;5.00;1.70;;;21.90;99.90;;;;;;6307067;22;20015;-82
2023/08/09 15:00:18;;;;;;;5.53;1.70;;;22.00;99.90;;;;;;6305182;22;20061;-82
2023/08/09 15:02:52;;;;;;;8.30;1.90;;;21.80;99.50;;;;;;6306169;22;20012;-82
2023/08/09 15:05:36;;;;;;;7.45;1.98;;;21.60;99.90;;;;;;6278158;22;20094;-84
2023/08/09 15:08:02;;;;;;;7.28;1.98;;;21.30;98.70;;;;;;6279364;22;20012;-82
2023/08/09 15:10:28;;;;;;;7.07;2.03;;;21.60;99.90;;;;;;6306709;22;20064;-81
2023/08/09 15:12:55;;;;;;;9.07;2.10;;;21.30;99.90;;;;;;6305779;22;20086;-83
2023/08/09 15:15:31;;;;;;;5.93;1.73;;;21.40;99.90;;;;;;6279051;22;20437;-84
2023/08/09 15:18:01;;;;;;;7.03;1.90;;;21.80;99.30;;;;;;6278811;22;20019;-85
2023/08/09 15:20:27;;;;;;;6.20;1.92;;;21.70;99.90;;;;;;6277980;22;20023;-83
2023/08/09 15:22:53;;;;;;;5.90;1.70;;;21.90;99.90;;;;;;6278351;22;20374;-85
2023/08/09 15:25:30;;;;;;;6.63;1.98;;;21.90;99.90;;;;;;6306460;22;20022;-84
2023/08/09 15:27:56;;;;;;;6.47;1.92;;;22.10;99.30;;;;;;6278044;22;20039;-83
2023/08/09 15:30:23;;;;;;;7.15;1.88;;;22.20;99.90;;;;;;6311591;22;20034;-85
2023/08/09 15:37:29;;;;;;;6.35;1.95;;;21.90;98.60;;;;;;6280602;22;20478;-84
2023/08/09 15:40:16;;;;;;;5.45;1.80;;;21.80;99.00;;;;;;6181319;23;20469;-84
2023/08/09 15:43:21;;;;;;;8.48;1.83;;;21.90;97.60;;;;;;6167911;22;20017;-84
2023/08/09 15:45:47;;;;;;;7.88;1.75;;;21.80;97.40;;;;;;6280350;22;20317;-85
2023/08/09 15:48:29;;;;;;;4.95;1.70;;;22.00;99.90;;;;;;6279133;22;20069;-83
2023/08/09 15:51:04;;;;;;;8.93;1.83;;;21.80;97.20;;;;;;6306177;22;20015;-83
2023/08/09 15:57:19;;;;;;;5.97;1.80;;;21.40;97.20;;;;;;6307087;22;20570;-83
2023/08/09 15:59:45;;;;;;;8.38;1.80;;;21.10;98.40;;;;;;6279630;22;20027;-83
2023/08/09 16:02:57;;;;;;;8.05;1.85;;;21.10;98.80;;;;;;6278889;22;20348;-83
2023/08/09 16:05:26;;;;;;;6.47;1.98;;;20.80;97.10;;;;;;6319792;22;20011;-84
2023/08/09 16:07:52;;;;;;;6.15;1.80;;;20.80;98.80;;;;;;6308008;22;20068;-84
2023/08/09 16:10:33;;;;;;;6.47;2.10;;;20.70;98.50;;;;;;6279662;22;20456;-84
2023/08/09 16:13:11;;;;;;;6.70;2.00;;;20.50;98.10;;;;;;6279901;22;20336;-84
2023/08/09 16:15:52;;;;;;;5.97;1.80;;;20.50;97.80;;;;;;6279234;22;20518;-84
2023/08/09 16:18:19;;;;;;;9.00;2.55;;;20.60;98.60;;;;;;6280089;22;20011;-83
2023/08/09 16:20:45;;;;;;;7.90;1.98;;;20.50;98.60;;;;;;6278510;22;20019;-83
2023/08/09 16:23:11;;;;;;;6.22;1.77;;;20.50;98.60;;;;;;6279251;22;20022;-83
2023/08/09 16:25:36;;;;;;;7.63;1.90;;;20.40;98.90;;;;;;6308127;22;20030;-83
2023/08/09 16:28:03;;;;;;;4.78;1.60;;;20.40;98.70;;;;;;6307653;22;20050;-83
2023/08/09 16:30:29;;;;;;;8.23;2.00;;;20.30;98.50;;;;;;6280060;22;20073;-84
2023/08/09 16:32:58;;;;;;;6.25;1.83;;;20.70;98.70;;;;;;6280032;22;20011;-84
2023/08/09 16:35:23;;;;;;;7.40;1.95;;;20.40;98.50;;;;;;6307714;22;20325;-84
2023/08/09 16:37:49;;;;;;;6.93;1.70;;;20.30;98.50;;;;;;6279248;22;20023;-83
2023/08/09 16:40:32;;;;;;;7.00;2.00;;;20.40;98.20;;;;;;6284508;22;20019;-84
2023/08/09 16:42:59;;;;;;;5.78;1.80;;;20.30;97.40;;;;;;6281323;22;20022;-83
2023/08/09 16:45:31;;;;;;;7.72;2.15;;;20.50;98.40;;;;;;6307153;22;20015;-84
2023/08/09 16:47:57;;;;;;;6.28;2.10;;;20.80;98.10;;;;;;6307861;22;20065;-84
2023/08/09 16:50:28;;;;;;;7.65;1.80;;;21.10;98.50;;;;;;6307459;22;20011;-84
2023/08/09 16:52:54;;;;;;;6.65;1.80;;;20.80;97.30;;;;;;6277327;22;20023;-84
2023/08/09 16:55:35;;;;;;;;;;;;;;;;;;;;;
2023/08/09 16:58:28;;;;;;;6.65;1.88;;;21.20;97.80;;;;;;6304822;22;20076;-84
2023/08/09 17:01:00;;;;;;;5.75;1.70;;;21.60;96.10;;;;;;6278488;22;20077;-85
2023/08/09 17:03:28;;;;;;;6.80;1.90;;;21.80;96.60;;;;;;6278738;22;20018;-84
2023/08/09 17:06:06;;;;;;;5.40;1.70;;;21.90;97.70;;;;;;6303749;22;20086;-85
2023/08/09 17:08:32;;;;;;;7.25;1.80;;;22.10;97.30;;;;;;6307265;22;20015;-84
2023/08/09 17:10:57;;;;;;;8.15;1.90;;;22.40;98.20;;;;;;6279088;22;20039;-84
2023/08/09 17:13:29;;;;;;;6.55;1.80;;;22.10;98.00;;;;;;6277629;22;20495;-84
2023/08/09 17:15:55;;;;;;;7.28;2.10;;;22.20;96.90;;;;;;6278667;22;20019;-85
2023/08/09 17:18:20;;;;;;;8.32;2.00;;;22.30;98.00;;;;;;6279241;22;20389;-84
2023/08/09 17:21:17;;;;;;;7.60;1.98;;;22.60;97.90;;;;;;6292734;22;20020;-84
2023/08/09 17:23:47;;;;;;;8.75;2.00;;;23.00;97.50;;;;;;6248683;22;20019;-84
2023/08/09 17:26:13;;;;;;;6.57;1.88;;;23.10;98.10;;;;;;6274066;22;20012;-84
2023/08/09 17:28:44;;;;;;;8.38;1.90;;;22.60;97.70;;;;;;6272897;22;20030;-84
2023/08/09 17:31:10;;;;;;;7.10;2.30;;;22.30;98.30;;;;;;6248246;22;20034;-84
2023/08/09 17:33:35;;;;;;;9.10;2.00;;;22.40;98.20;;;;;;6273878;22;20340;-84
2023/08/09 17:36:19;;;;;;;7.03;1.90;;;22.20;98.10;;;;;;6273875;22;20122;-84
2023/08/09 17:38:51;;;;;;;6.53;1.92;;;22.10;97.20;;;;;;6274728;22;20012;-84
2023/08/09 17:41:17;;;;;;;6.80;1.65;;;22.10;97.80;;;;;;6246308;22;20054;-83
2023/08/09 17:43:49;;;;;;;9.00;2.00;;;22.20;98.30;;;;;;6246907;22;20016;-84
2023/08/09 17:46:20;;;;;;;7.30;2.13;;;22.10;97.60;;;;;;6247559;22;20020;-84
2023/08/09 17:49:08;;;;;;;7.07;1.80;;;22.20;97.60;;;;;;6291784;22;20061;-83
2023/08/09 17:51:34;;;;;;;8.85;2.35;;;22.10;96.10;;;;;;6254095;22;20083;-83
2023/08/09 17:54:07;;;;;;;8.07;1.92;;;22.20;98.30;;;;;;6277663;22;20625;-85
2023/08/09 17:56:33;;;;;;;6.38;1.80;;;22.20;97.90;;;;;;6304744;22;20026;-83
2023/08/09 17:58:59;;;;;;;6.03;1.80;;;22.10;98.10;;;;;;6277482;22;20015;-83
2023/08/09 18:05:00;;;;;;;5.63;1.90;;;22.00;96.60;;;;;;6270365;22;20062;-81
2023/08/09 18:07:28;;;;;;;7.60;1.80;;;21.80;97.40;;;;;;6277955;22;20050;-84
2023/08/09 18:09:54;;;;;;;7.30;1.92;;;21.70;98.60;;;;;;6276906;22;20474;-82
2023/08/09 18:12:19;;;;;;;7.82;2.25;;;21.40;99.10;;;;;;6305230;22;20012;-82
2023/08/09 18:14:51;;;;;;;7.80;2.00;;;20.70;99.70;;;;;;6305300;22;20011;-81
2023/08/09 18:17:21;;;;;;;7.70;1.98;;;20.10;99.90;;;;;;6304704;22;20117;-82
2023/08/09 18:19:47;;;;;;;8.27;2.03;;;19.50;99.90;;;;;;6302257;22;20487;-81
2023/08/09 18:22:13;;;;;;;6.55;2.00;;;19.20;99.90;;;;;;6304394;22;20046;-82
2023/08/09 18:24:38;;;;;;;9.68;2.20;;;18.90;99.90;;;;;;6277302;22;20397;-82
2023/08/09 18:27:19;;;;;;;7.70;2.00;;;18.70;99.90;;;;;;6305335;22;20023;-81
2023/08/09 18:29:45;;;;;;;8.57;2.30;;;18.40;99.90;;;;;;6304068;22;20050;-81
2023/08/09 18:32:11;;;;;;;7.95;1.90;;;18.20;99.90;;;;;;6277292;22;20022;-81
2023/08/09 18:34:37;;;;;;;9.65;2.30;;;18.20;99.90;;;;;;6276902;22;20023;-81
2023/08/09 18:37:02;;;;;;;6.88;2.10;;;18.00;99.90;;;;;;6303620;22;20122;-81
2023/08/09 18:39:43;;;;;;;7.20;2.00;;;18.00;99.90;;;;;;6305733;22;20112;-81
2023/08/09 18:42:09;;;;;;;10.98;2.10;;;17.70;99.90;;;;;;6277979;22;20015;-81
2023/08/09 18:44:35;;;;;;;7.28;2.10;;;17.60;99.90;;;;;;6276686;22;20458;-81
2023/08/09 18:47:07;;;;;;;9.05;2.67;;;17.50;99.90;;;;;;6275258;22;20084;-81
2023/08/09 18:49:32;;;;;;;9.07;2.70;;;17.40;99.90;;;;;;6274813;22;20106;-81
2023/08/09 18:52:00;;;;;;;10.35;2.75;;;17.30;99.90;;;;;;6303698;22;20019;-81
2023/08/09 18:54:26;;;;;;;13.95;2.67;;;17.20;99.90;;;;;;6305027;22;20015;-81
2023/08/09 18:56:51;;;;;;;6.95;2.20;;;17.30;99.90;;;;;;6304558;22;20155;-81
2023/08/09 18:59:17;;;;;;;10.30;2.53;;;17.00;99.90;;;;;;6277466;22;20035;-80
2023/08/09 19:01:43;;;;;;;6.47;2.17;;;16.90;99.90;;;;;;6302207;22;20031;-81
2023/08/09 19:04:08;;;;;;;9.13;2.30;;;16.80;99.90;;;;;;6302878;22;20102;-81
2023/08/09 19:06:34;;;;;;;7.72;2.00;;;16.70;99.90;;;;;;6302673;22;20469;-81
2023/08/09 19:09:00;;;;;;;8.85;2.10;;;16.70;99.90;;;;;;6278011;22;20027;-82
2023/08/09 19:11:26;;;;;;;9.10;2.22;;;16.50;99.90;;;;;;6277058;22;20020;-81
2023/08/09 19:13:52;;;;;;;8.50;2.22;;;16.50;99.90;;;;;;6304537;22;20086;-80
2023/08/09 19:16:17;;;;;;;10.27;2.33;;;16.70;99.90;;;;;;6304687;22;20372;-81
2023/08/09 19:18:44;;;;;;;7.70;2.20;;;16.30;99.90;;;;;;6279182;22;20023;-81
2023/08/09 19:21:10;;;;;;;7.78;2.25;;;16.30;99.90;;;;;;6279821;22;20015;-83
2023/08/09 19:23:38;;;;;;;7.85;2.15;;;16.20;99.90;;;;;;6307868;22;20365;-83
2023/08/09 19:26:04;;;;;;;8.98;2.20;;;16.10;99.90;;;;;;6279059;22;20023;-82
2023/08/09 19:28:29;;;;;;;9.13;2.42;;;16.40;99.90;;;;;;6308291;22;20015;-83
2023/08/09 19:30:55;;;;;;;8.45;2.28;;;16.00;99.90;;;;;;6280254;22;20050;-82
2023/08/09 19:33:31;;;;;;;9.57;2.03;;;15.90;99.90;;;;;;6279862;22;20012;-85
2023/08/09 19:35:57;;;;;;;8.27;2.10;;;16.30;99.90;;;;;;6280137;22;20356;-85
2023/08/09 19:38:23;;;;;;;7.60;2.17;;;15.70;99.90;;;;;;6308239;22;20015;-85
2023/08/09 19:40:49;;;;;;;6.32;1.90;;;15.70;99.90;;;;;;6279495;22;20375;-85
2023/08/09 19:43:14;;;;;;;8.20;2.10;;;15.60;99.90;;;;;;6280570;22;20007;-85
2023/08/09 19:45:40;;;;;;;10.55;2.15;;;15.50;99.90;;;;;;6306231;22;20386;-84
2023/08/09 19:48:06;;;;;;;7.72;2.08;;;15.50;99.90;;;;;;6306605;22;20455;-85
2023/08/09 19:51:25;;;;;;;7.22;2.03;;;15.40;99.90;;;;;;6280001;22;20020;-85
2023/08/09 19:54:13;;;;;;;9.18;2.17;;;15.40;99.90;;;;;;6278614;22;20015;-85
2023/08/09 19:56:40;;;;;;;7.57;2.20;;;15.20;99.90;;;;;;6270150;22;20060;-85
2023/08/09 19:59:20;;;;;;;9.95;2.42;;;15.20;99.90;;;;;;6280373;22;20015;-85
2023/08/09 20:02:26;;;;;;;10.38;2.53;;;15.10;99.90;;;;;;6278737;22;20016;-85
2023/08/09 20:05:03;;;;;;;7.30;2.25;;;15.00;99.90;;;;;;6307337;22;20015;-84
2023/08/09 20:10:05;;;;;;;8.85;2.30;;;15.00;99.90;;;;;;6303965;22;20027;-85
2023/08/09 20:13:22;;;;;;;7.88;2.50;;;14.90;99.90;;;;;;6310166;22;20022;-84
2023/08/09 20:16:39;;;;;;;7.72;2.17;;;15.00;99.90;;;;;;6309569;22;20094;-85
2023/08/09 20:20:00;;;;;;;9.68;2.22;;;14.80;99.90;;;;;;6283156;22;20562;-83
2023/08/09 20:22:31;;;;;;;6.78;2.10;;;14.40;99.90;;;;;;6212203;23;20012;-83
2023/08/09 20:24:56;;;;;;;8.05;2.30;;;14.60;99.90;;;;;;6212933;23;20427;-83
2023/08/09 20:27:22;;;;;;;7.57;2.47;;;14.60;99.90;;;;;;6245942;22;20023;-84
2023/08/09 20:30:00;;;;;;;9.63;2.47;;;14.50;99.90;;;;;;6309281;22;20338;-84
2023/08/09 20:32:29;;;;;;;7.70;2.30;;;15.00;99.90;;;;;;6284655;22;20034;-84
2023/08/09 20:34:55;;;;;;;11.98;2.78;;;14.30;99.90;;;;;;6309405;22;20455;-84
2023/08/09 20:37:22;;;;;;;8.43;2.50;;;14.30;99.90;;;;;;6309755;22;20023;-84
2023/08/09 20:39:50;;;;;;;10.32;2.70;;;14.30;99.90;;;;;;6311144;22;20095;-84
2023/08/09 20:42:15;;;;;;;8.50;2.50;;;14.30;99.90;;;;;;6283710;22;20022;-84
2023/08/09 20:44:41;;;;;;;10.35;2.60;;;14.20;99.90;;;;;;6307678;22;20019;-84
2023/08/09 20:47:17;;;;;;;8.13;2.28;;;14.20;99.90;;;;;;6279562;22;20057;-85
2023/08/09 20:49:42;;;;;;;8.25;2.50;;;14.10;99.90;;;;;;6278472;22;20016;-85
2023/08/09 20:52:08;;;;;;;9.50;2.70;;;14.20;99.90;;;;;;6306637;22;20305;-85
2023/08/09 20:54:34;;;;;;;7.55;2.10;;;14.10;99.90;;;;;;6278667;22;20423;-85
2023/08/09 20:57:20;;;;;;;8.40;2.42;;;13.70;99.90;;;;;;6277789;22;20011;-85
2023/08/09 21:00:00;;;;;;;9.07;2.30;;;14.00;99.90;;;;;;6279510;22;20019;-85
2023/08/09 21:02:26;;;;;;;8.02;2.35;;;14.00;99.90;;;;;;6279553;22;20335;-85
2023/08/09 21:05:04;;;;;;;8.35;2.45;;;14.10;99.90;;;;;;6277169;22;20011;-84
2023/08/09 21:07:30;;;;;;;10.23;2.67;;;13.80;99.90;;;;;;6278558;22;20019;-84
2023/08/09 21:10:03;;;;;;;8.88;2.40;;;15.00;99.90;;;;;;6278028;22;20011;-84
2023/08/09 21:12:29;;;;;;;10.40;2.67;;;13.70;99.90;;;;;;6278345;22;20102;-85
2023/08/09 21:15:01;;;;;;;8.85;2.40;;;13.70;99.90;;;;;;6277933;22;20019;-85
2023/08/09 21:17:50;;;;;;;9.90;2.47;;;13.60;99.90;;;;;;6278768;22;20066;-85
2023/08/09 21:20:41;;;;;;;9.23;2.65;;;13.60;99.90;;;;;;6278073;22;20011;-85
2023/08/09 21:26:47;;;;;;;8.05;2.30;;;13.60;99.90;;;;;;6305293;22;20062;-89
2023/08/09 21:29:14;;;;;;;6.18;2.13;;;13.50;99.90;;;;;;6280283;22;20015;-88
2023/08/09 21:31:43;;;;;;;11.77;2.67;;;14.10;99.90;;;;;;6307320;22;20011;-85
2023/08/09 21:34:08;;;;;;;10.13;2.60;;;14.40;99.90;;;;;;6279090;22;20007;-82
2023/08/09 21:36:34;;;;;;;8.27;2.55;;;14.30;99.90;;;;;;6307689;22;20532;-84
2023/08/09 21:39:00;;;;;;;9.48;2.60;;;13.30;99.90;;;;;;6306060;22;20301;-84
2023/08/09 21:41:27;;;;;;;10.05;2.40;;;13.30;99.90;;;;;;6307700;22;20030;-84
2023/08/09 21:43:53;;;;;;;7.70;2.40;;;13.40;99.90;;;;;;6279203;22;20410;-84
2023/08/09 21:46:19;;;;;;;11.95;2.55;;;13.30;99.90;;;;;;6278723;22;20016;-84
2023/08/09 21:48:44;;;;;;;9.80;2.55;;;13.80;99.90;;;;;;6307083;22;20015;-84
2023/08/09 21:51:26;;;;;;;9.98;2.50;;;13.30;99.90;;;;;;6278982;22;20398;-84
2023/08/09 21:54:12;;;;;;;12.40;2.58;;;13.10;99.90;;;;;;6278508;22;20455;-83
2023/08/09 21:56:57;;;;;;;10.07;2.90;;;13.20;99.90;;;;;;6306136;22;20021;-83
2023/08/09 21:59:23;;;;;;;10.35;3.47;;;13.20;99.90;;;;;;6278935;22;20027;-84
2023/08/09 22:02:27;;;;;;;9.23;3.05;;;13.20;99.90;;;;;;6278124;22;20019;-83
2023/08/09 22:04:53;;;;;;;12.48;2.80;;;12.60;99.90;;;;;;6256230;22;20345;-84
2023/08/09 22:07:19;;;;;;;10.15;3.22;;;13.70;99.90;;;;;;6280179;22;20019;-83
2023/08/09 22:09:45;;;;;;;10.30;3.10;;;13.20;99.90;;;;;;6279907;22;20026;-85
2023/08/09 22:12:13;;;;;;;9.30;2.72;;;13.20;99.90;;;;;;6307174;22;20451;-83
2023/08/09 22:14:48;;;;;;;9.75;3.05;;;13.50;99.90;;;;;;6278223;22;20351;-85
2023/08/09 22:17:13;;;;;;;11.65;2.58;;;13.20;99.90;;;;;;6280157;22;20042;-84
2023/08/09 22:19:45;;;;;;;11.02;2.72;;;13.00;99.90;;;;;;6279006;22;20011;-85
2023/08/09 22:22:11;;;;;;;7.47;2.30;;;13.50;99.90;;;;;;6305913;22;20020;-84
2023/08/09 22:24:49;;;;;;;8.70;2.60;;;14.30;99.90;;;;;;6279305;22;20014;-85
2023/08/09 22:27:14;;;;;;;9.77;2.85;;;13.50;99.90;;;;;;6279273;22;20058;-85
2023/08/09 22:29:51;;;;;;;10.35;2.65;;;13.30;99.90;;;;;;6278325;22;20015;-84
2023/08/09 22:32:32;;;;;;;7.90;2.58;;;13.60;99.90;;;;;;6279242;22;20064;-84
2023/08/09 22:34:58;;;;;;;8.93;2.65;;;13.00;99.90;;;;;;6306645;22;20471;-84
2023/08/09 22:37:29;;;;;;;9.93;2.80;;;14.20;99.90;;;;;;6278627;22;20148;-84
2023/08/09 22:39:55;;;;;;;11.32;3.17;;;14.00;99.90;;;;;;6279453;22;20068;-85
2023/08/09 22:42:32;;;;;;;10.07;2.45;;;13.40;99.90;;;;;;6306259;22;20430;-84
2023/08/09 22:44:58;;;;;;;7.93;2.42;;;13.80;99.90;;;;;;6306777;22;20049;-84
2023/08/09 22:47:36;;;;;;;10.88;2.90;;;13.40;99.90;;;;;;6279438;22;20023;-84
2023/08/09 22:50:05;;;;;;;7.90;2.53;;;14.10;99.90;;;;;;6279213;22;20030;-84
2023/08/09 22:52:55;;;;;;;8.48;2.60;;;13.40;99.90;;;;;;6281550;22;20019;-84
2023/08/09 22:55:32;;;;;;;10.88;2.63;;;13.50;99.90;;;;;;6309303;22;20026;-85
2023/08/09 22:57:58;;;;;;;9.48;2.83;;;14.00;99.90;;;;;;6280226;22;20026;-85
2023/08/09 23:00:35;;;;;;;8.95;2.72;;;13.50;99.90;;;;;;6307294;22;20007;-84
2023/08/09 23:03:01;;;;;;;8.98;2.80;;;13.50;99.90;;;;;;6279177;22;20045;-84
2023/08/09 23:05:27;;;;;;;9.45;2.60;;;13.50;99.90;;;;;;6278274;22;20019;-84
2023/08/09 23:08:19;;;;;;;8.13;2.30;;;12.90;99.90;;;;;;6280723;22;20068;-84
2023/08/09 23:10:45;;;;;;;8.90;2.60;;;13.50;99.90;;;;;;6278842;22;20021;-85
2023/08/09 23:13:27;;;;;;;12.07;2.78;;;13.50;99.90;;;;;;6308273;22;20027;-85
2023/08/09 23:16:02;;;;;;;8.32;2.58;;;13.90;99.90;;;;;;6280217;22;20019;-84
2023/08/09 23:18:28;;;;;;;10.20;2.75;;;13.40;99.90;;;;;;6280173;22;20077;-84
2023/08/09 23:21:09;;;;;;;10.57;2.72;;;13.40;99.90;;;;;;6308340;22;20339;-84
2023/08/09 23:23:35;;;;;;;11.63;2.60;;;13.40;99.90;;;;;;6280514;22;20457;-84
2023/08/09 23:26:16;;;;;;;9.75;2.63;;;14.10;99.90;;;;;;6307080;22;20051;-84
2023/08/09 23:28:42;;;;;;;9.40;2.58;;;14.00;99.90;;;;;;6307982;22;20072;-84
2023/08/09 23:31:08;;;;;;;10.02;2.72;;;13.50;99.90;;;;;;6280239;22;20443;-84
2023/08/09 23:33:39;;;;;;;10.07;2.75;;;13.30;99.90;;;;;;6279727;22;20026;-85
2023/08/09 23:36:20;;;;;;;11.38;3.00;;;13.70;99.90;;;;;;6280689;22;20316;-84
2023/08/09 23:38:46;;;;;;;10.80;3.05;;;13.50;99.90;;;;;;6307535;22;20065;-85